Time;durP1;ratioP1;P1;durP2;ratioP2;P2;SDS_P1;SDS_P2;PMS_P1;PMS_P2;Temp;Humidity;BMP_temperature;BMP_pressure;BME280_temperature;BME280_humidity;BME280_pressure;Samples;Min_cycle;Max_cycle;Signal;HPM_P1;HPM_P2
2023/10/24 00:00:05;;;;;;;6.03;2.83;;;;;;;;;;705513;27;896;-60
2023/10/24 00:00:32;;;;;;;6.30;2.83;;;;;;;;;;706650;27;875;-61
2023/10/24 00:00:52;;;;;;;5.95;2.90;;;;;;;;;;706114;27;4355;-58
2023/10/24 00:01:13;;;;;;;5.77;3.17;;;;;;;;;;704556;27;1476;-60
2023/10/24 00:01:33;;;;;;;6.60;3.10;;;;;;;;;;704504;27;923;-60
2023/10/24 00:01:53;;;;;;;5.60;2.80;;;;;;;;;;706225;27;852;-60
2023/10/24 00:02:13;;;;;;;5.35;2.83;;;;;;;;;;705556;27;1571;-59
2023/10/24 00:02:34;;;;;;;6.47;2.80;;;;;;;;;;707040;27;828;-58
2023/10/24 00:02:54;;;;;;;7.17;2.90;;;;;;;;;;706715;27;878;-59
2023/10/24 00:03:14;;;;;;;6.07;2.80;;;;;;;;;;704929;27;1742;-60
2023/10/24 00:03:35;;;;;;;5.47;2.90;;;;;;;;;;705972;27;903;-61
2023/10/24 00:03:55;;;;;;;5.20;3.00;;;;;;;;;;705638;27;4272;-61
2023/10/24 00:04:15;;;;;;;6.35;2.95;;;;;;;;;;704010;27;1767;-59
2023/10/24 00:04:35;;;;;;;5.93;3.00;;;;;;;;;;705234;28;773;-61
2023/10/24 00:04:56;;;;;;;6.17;3.10;;;;;;;;;;705190;27;923;-61
2023/10/24 00:05:16;;;;;;;6.68;3.20;;;;;;;;;;703717;27;1791;-61
2023/10/24 00:05:36;;;;;;;5.23;2.93;;;;;;;;;;706571;27;785;-61
2023/10/24 00:05:57;;;;;;;6.40;2.90;;;;;;;;;;704932;27;951;-60
2023/10/24 00:06:17;;;;;;;6.63;2.85;;;;;;;;;;703854;27;1795;-61
2023/10/24 00:06:37;;;;;;;6.13;2.90;;;;;;;;;;705104;27;943;-61
2023/10/24 00:06:57;;;;;;;5.37;2.73;;;;;;;;;;705150;27;4245;-60
2023/10/24 00:07:18;;;;;;;6.18;2.65;;;;;;;;;;704369;27;1708;-61
2023/10/24 00:07:38;;;;;;;5.77;2.60;;;;;;;;;;703122;28;866;-60
2023/10/24 00:07:58;;;;;;;5.10;2.70;;;;;;;;;;702880;28;757;-62
2023/10/24 00:08:19;;;;;;;5.00;3.00;;;;;;;;;;701585;28;1754;-59
2023/10/24 00:08:39;;;;;;;5.13;3.10;;;;;;;;;;700259;28;805;-61
2023/10/24 00:08:59;;;;;;;5.33;3.03;;;;;;;;;;699482;28;833;-61
2023/10/24 00:09:20;;;;;;;6.22;3.00;;;;;;;;;;698857;28;2127;-61
2023/10/24 00:09:40;;;;;;;5.67;2.83;;;;;;;;;;699131;28;4765;-61
2023/10/24 00:10:04;;;;;;;4.63;2.80;;;;;;;;;;701842;28;879;-60
2023/10/24 00:10:24;;;;;;;5.38;2.97;;;;;;;;;;700536;28;1684;-60
2023/10/24 00:10:44;;;;;;;7.38;3.00;;;;;;;;;;703127;28;954;-60
2023/10/24 00:11:05;;;;;;;6.73;2.90;;;;;;;;;;700104;28;943;-61
2023/10/24 00:11:25;;;;;;;5.43;3.10;;;;;;;;;;699574;28;1150;-60
2023/10/24 00:11:45;;;;;;;6.30;3.00;;;;;;;;;;703042;28;911;-61
2023/10/24 00:12:06;;;;;;;7.53;3.03;;;;;;;;;;703190;28;2059;-60
2023/10/24 00:12:26;;;;;;;6.03;3.10;;;;;;;;;;701863;28;2322;-60
2023/10/24 00:12:46;;;;;;;5.50;3.10;;;;;;;;;;702760;28;4584;-61
2023/10/24 00:13:07;;;;;;;4.87;3.20;;;;;;;;;;705184;27;1272;-61
2023/10/24 00:13:27;;;;;;;5.72;3.15;;;;;;;;;;703675;27;1262;-59
2023/10/24 00:13:48;;;;;;;6.20;2.97;;;;;;;;;;706161;27;782;-60
2023/10/24 00:14:08;;;;;;;5.97;2.72;;;;;;;;;;705096;27;974;-60
2023/10/24 00:14:28;;;;;;;5.97;3.10;;;;;;;;;;703926;27;1569;-61
2023/10/24 00:14:49;;;;;;;5.33;3.00;;;;;;;;;;706101;27;884;-62
2023/10/24 00:15:09;;;;;;;5.97;2.95;;;;;;;;;;705382;27;891;-61
2023/10/24 00:15:29;;;;;;;5.13;3.07;;;;;;;;;;704691;27;847;-60
2023/10/24 00:15:50;;;;;;;6.40;3.20;;;;;;;;;;705200;27;4800;-60
2023/10/24 00:16:10;;;;;;;4.60;3.10;;;;;;;;;;703946;28;1019;-62
2023/10/24 00:16:30;;;;;;;6.03;2.90;;;;;;;;;;704208;27;5183;-60
2023/10/24 00:16:51;;;;;;;6.43;2.90;;;;;;;;;;704216;28;986;-61
2023/10/24 00:17:11;;;;;;;6.20;3.10;;;;;;;;;;704821;27;1509;-61
2023/10/24 00:17:31;;;;;;;6.10;3.00;;;;;;;;;;705443;27;871;-60
2023/10/24 00:17:51;;;;;;;5.15;3.05;;;;;;;;;;705420;27;1057;-60
2023/10/24 00:18:13;;;;;;;4.77;2.90;;;;;;;;;;703299;28;1627;-60
2023/10/24 00:18:33;;;;;;;6.78;3.13;;;;;;;;;;706646;27;923;-61
2023/10/24 00:18:53;;;;;;;7.57;3.50;;;;;;;;;;705513;27;4407;-60
2023/10/24 00:19:14;;;;;;;7.57;3.23;;;;;;;;;;705124;27;1764;-60
2023/10/24 00:19:34;;;;;;;6.27;3.00;;;;;;;;;;702014;28;863;-60
2023/10/24 00:19:54;;;;;;;4.70;2.93;;;;;;;;;;703652;28;1028;-60
2023/10/24 00:20:14;;;;;;;5.77;3.20;;;;;;;;;;702149;28;941;-60
2023/10/24 00:20:35;;;;;;;6.60;3.10;;;;;;;;;;703440;28;883;-61
2023/10/24 00:20:55;;;;;;;5.43;2.90;;;;;;;;;;700871;28;835;-61
2023/10/24 00:21:15;;;;;;;6.75;2.90;;;;;;;;;;699092;28;1842;-61
2023/10/24 00:21:35;;;;;;;7.63;3.27;;;;;;;;;;702630;28;784;-59
2023/10/24 00:21:56;;;;;;;5.87;3.23;;;;;;;;;;701069;28;4254;-60
2023/10/24 00:22:16;;;;;;;5.18;3.00;;;;;;;;;;701262;28;1808;-61
2023/10/24 00:22:36;;;;;;;6.70;3.10;;;;;;;;;;701867;28;911;-60
2023/10/24 00:22:57;;;;;;;5.45;2.85;;;;;;;;;;704596;28;864;-59
2023/10/24 00:23:17;;;;;;;5.50;3.23;;;;;;;;;;702488;28;2159;-60
2023/10/24 00:23:37;;;;;;;5.27;3.20;;;;;;;;;;703119;28;897;-60
2023/10/24 00:23:58;;;;;;;4.95;3.15;;;;;;;;;;702103;28;884;-60
2023/10/24 00:24:18;;;;;;;5.27;3.00;;;;;;;;;;702794;28;1562;-60
2023/10/24 00:24:38;;;;;;;5.40;3.10;;;;;;;;;;699720;28;911;-60
2023/10/24 00:24:58;;;;;;;5.90;3.20;;;;;;;;;;696814;28;4401;-61
2023/10/24 00:25:19;;;;;;;6.90;3.27;;;;;;;;;;699515;28;1815;-60
2023/10/24 00:25:39;;;;;;;5.83;2.90;;;;;;;;;;699216;28;907;-60
2023/10/24 00:25:59;;;;;;;5.73;3.30;;;;;;;;;;699965;28;943;-60
2023/10/24 00:26:19;;;;;;;6.40;3.33;;;;;;;;;;699036;28;2227;-60
2023/10/24 00:26:44;;;;;;;5.60;2.97;;;;;;;;;;703560;28;991;-59
2023/10/24 00:27:04;;;;;;;5.63;3.00;;;;;;;;;;705651;27;914;-60
2023/10/24 00:27:26;;;;;;;6.05;2.92;;;;;;;;;;702261;28;1814;-60
2023/10/24 00:27:47;;;;;;;6.03;3.25;;;;;;;;;;702275;28;4345;-61
2023/10/24 00:28:07;;;;;;;5.87;3.30;;;;;;;;;;702643;28;887;-61
2023/10/24 00:28:27;;;;;;;6.82;3.30;;;;;;;;;;701512;28;2416;-60
2023/10/24 00:28:47;;;;;;;6.40;3.00;;;;;;;;;;702101;28;876;-60
2023/10/24 00:29:08;;;;;;;6.53;2.90;;;;;;;;;;699966;28;1148;-61
2023/10/24 00:29:28;;;;;;;5.22;2.88;;;;;;;;;;697013;28;1786;-61
2023/10/24 00:29:48;;;;;;;5.30;3.00;;;;;;;;;;699798;28;939;-60
2023/10/24 00:30:10;;;;;;;5.93;3.20;;;;;;;;;;700012;28;884;-60
2023/10/24 00:30:30;;;;;;;6.70;3.25;;;;;;;;;;700997;28;2020;-60
2023/10/24 00:30:51;;;;;;;7.50;3.10;;;;;;;;;;700322;28;4455;-61
2023/10/24 00:31:11;;;;;;;5.80;3.00;;;;;;;;;;700857;28;1904;-60
2023/10/24 00:31:32;;;;;;;7.00;3.33;;;;;;;;;;704386;28;956;-61
2023/10/24 00:31:52;;;;;;;6.00;3.23;;;;;;;;;;701709;28;1140;-60
2023/10/24 00:32:13;;;;;;;6.55;3.30;;;;;;;;;;700230;28;1981;-61
2023/10/24 00:32:33;;;;;;;5.90;3.10;;;;;;;;;;702489;28;895;-59
2023/10/24 00:32:53;;;;;;;5.57;3.20;;;;;;;;;;701518;28;994;-59
2023/10/24 00:33:13;;;;;;;5.70;2.93;;;;;;;;;;696997;28;2392;-60
2023/10/24 00:33:34;;;;;;;5.87;3.30;;;;;;;;;;698112;28;855;-60
2023/10/24 00:33:54;;;;;;;5.60;3.17;;;;;;;;;;700693;28;4296;-60
2023/10/24 00:34:14;;;;;;;6.23;3.10;;;;;;;;;;696939;28;2074;-59
2023/10/24 00:34:34;;;;;;;6.50;2.95;;;;;;;;;;698449;28;884;-58
2023/10/24 00:34:55;;;;;;;6.33;3.10;;;;;;;;;;699254;28;1309;-60
2023/10/24 00:35:16;;;;;;;5.97;3.50;;;;;;;;;;698706;28;1333;-60
2023/10/24 00:35:36;;;;;;;5.40;3.03;;;;;;;;;;699802;28;856;-60
2023/10/24 00:35:56;;;;;;;5.07;3.13;;;;;;;;;;699476;28;892;-59
2023/10/24 00:36:17;;;;;;;5.00;3.03;;;;;;;;;;696718;28;2370;-59
2023/10/24 00:36:39;;;;;;;4.97;2.80;;;;;;;;;;698487;28;891;-60
2023/10/24 00:36:59;;;;;;;4.78;3.00;;;;;;;;;;698820;28;6554;-60
2023/10/24 00:37:20;;;;;;;6.47;2.97;;;;;;;;;;698078;28;2423;-60
2023/10/24 00:37:40;;;;;;;6.45;2.97;;;;;;;;;;693156;28;1298;-59
2023/10/24 00:38:00;;;;;;;5.60;3.30;;;;;;;;;;694299;28;789;-60
2023/10/24 00:38:21;;;;;;;6.13;3.23;;;;;;;;;;695427;28;2763;-60
2023/10/24 00:38:41;;;;;;;6.95;3.17;;;;;;;;;;698142;28;5811;-62
2023/10/24 00:39:01;;;;;;;6.00;3.33;;;;;;;;;;700753;28;1347;-60
2023/10/24 00:39:22;;;;;;;6.73;3.30;;;;;;;;;;701849;28;1754;-60
2023/10/24 00:39:42;;;;;;;6.18;3.22;;;;;;;;;;705716;27;4464;-60
2023/10/24 00:40:04;;;;;;;4.57;2.93;;;;;;;;;;704933;28;792;-59
2023/10/24 00:40:25;;;;;;;5.22;2.90;;;;;;;;;;701674;28;2060;-60
2023/10/24 00:40:45;;;;;;;6.63;3.30;;;;;;;;;;702782;28;915;-60
2023/10/24 00:41:06;;;;;;;6.95;3.20;;;;;;;;;;702609;28;903;-59
2023/10/24 00:41:26;;;;;;;5.87;3.07;;;;;;;;;;701274;28;1774;-59
2023/10/24 00:41:46;;;;;;;5.63;3.37;;;;;;;;;;699821;28;1389;-61
2023/10/24 00:42:06;;;;;;;6.40;3.43;;;;;;;;;;700966;28;906;-60
2023/10/24 00:42:27;;;;;;;5.20;3.00;;;;;;;;;;701662;28;1481;-59
2023/10/24 00:42:47;;;;;;;5.30;3.00;;;;;;;;;;702297;28;4273;-59
2023/10/24 00:43:08;;;;;;;6.10;3.00;;;;;;;;;;702979;28;836;-59
2023/10/24 00:43:28;;;;;;;6.38;3.03;;;;;;;;;;697727;28;1718;-59
2023/10/24 00:43:49;;;;;;;6.03;3.00;;;;;;;;;;702401;28;892;-60
2023/10/24 00:44:09;;;;;;;5.50;2.90;;;;;;;;;;701204;28;1236;-59
2023/10/24 00:44:31;;;;;;;4.72;2.80;;;;;;;;;;696808;28;1568;-60
2023/10/24 00:44:51;;;;;;;5.13;3.00;;;;;;;;;;694699;28;1259;-59
2023/10/24 00:45:12;;;;;;;6.47;3.20;;;;;;;;;;692811;28;1490;-60
2023/10/24 00:45:34;;;;;;;6.90;3.00;;;;;;;;;;696845;28;867;-59
2023/10/24 00:45:54;;;;;;;6.32;3.10;;;;;;;;;;695037;28;4325;-60
2023/10/24 00:46:14;;;;;;;5.10;2.83;;;;;;;;;;698094;28;1484;-59
2023/10/24 00:46:36;;;;;;;5.47;2.70;;;;;;;;;;699187;28;1296;-60
2023/10/24 00:46:56;;;;;;;5.90;2.97;;;;;;;;;;697722;28;1231;-60
2023/10/24 00:47:16;;;;;;;5.10;2.90;;;;;;;;;;697115;28;3195;-60
2023/10/24 00:47:38;;;;;;;6.20;3.03;;;;;;;;;;696692;28;933;-59
2023/10/24 00:47:58;;;;;;;5.78;3.13;;;;;;;;;;698278;28;896;-60
2023/10/24 00:48:19;;;;;;;6.50;3.10;;;;;;;;;;694592;28;1467;-60
2023/10/24 00:48:39;;;;;;;5.50;2.97;;;;;;;;;;697480;28;4391;-60
2023/10/24 00:49:00;;;;;;;4.93;2.92;;;;;;;;;;699819;28;796;-59
2023/10/24 00:49:21;;;;;;;5.03;2.80;;;;;;;;;;697458;28;1761;-59
2023/10/24 00:49:41;;;;;;;4.97;3.07;;;;;;;;;;702781;28;894;-59
2023/10/24 00:50:02;;;;;;;7.18;3.40;;;;;;;;;;698717;28;876;-59
2023/10/24 00:50:22;;;;;;;6.87;3.30;;;;;;;;;;693091;28;1675;-60
2023/10/24 00:50:42;;;;;;;5.03;3.10;;;;;;;;;;693176;28;1345;-59
2023/10/24 00:51:03;;;;;;;4.83;2.93;;;;;;;;;;692947;28;892;-60
2023/10/24 00:51:23;;;;;;;4.77;2.93;;;;;;;;;;694195;28;1674;-60
2023/10/24 00:51:44;;;;;;;5.35;2.80;;;;;;;;;;692232;28;4367;-61
2023/10/24 00:52:04;;;;;;;6.03;3.20;;;;;;;;;;693211;28;1919;-59
2023/10/24 00:52:25;;;;;;;5.88;3.00;;;;;;;;;;695686;28;1084;-61
2023/10/24 00:52:45;;;;;;;6.80;3.10;;;;;;;;;;698542;28;825;-62
2023/10/24 00:53:08;;;;;;;5.93;3.05;;;;;;;;;;696660;28;1268;-60
2023/10/24 00:53:28;;;;;;;5.70;3.00;;;;;;;;;;700226;28;1711;-60
2023/10/24 00:53:49;;;;;;;7.60;3.20;;;;;;;;;;701351;28;1330;-59
2023/10/24 00:54:10;;;;;;;7.25;3.22;;;;;;;;;;700220;28;1155;-58
2023/10/24 00:54:31;;;;;;;6.28;3.60;;;;;;;;;;697333;28;2237;-58
2023/10/24 00:54:52;;;;;;;6.85;3.15;;;;;;;;;;698104;28;4486;-59
2023/10/24 00:55:13;;;;;;;6.65;3.20;;;;;;;;;;697144;28;1592;-59
2023/10/24 00:55:36;;;;;;;6.00;3.15;;;;;;;;;;695939;28;979;-59
2023/10/24 00:55:58;;;;;;;5.75;2.92;;;;;;;;;;696487;28;1244;-60
2023/10/24 00:56:18;;;;;;;6.15;2.95;;;;;;;;;;695080;28;2174;-59
2023/10/24 00:56:39;;;;;;;4.90;2.75;;;;;;;;;;697057;28;1103;-60
2023/10/24 00:57:00;;;;;;;5.50;2.73;;;;;;;;;;694923;28;1139;-61
2023/10/24 00:57:20;;;;;;;5.53;3.00;;;;;;;;;;694357;28;1466;-61
2023/10/24 00:57:40;;;;;;;4.53;3.00;;;;;;;;;;695468;28;4645;-58
2023/10/24 00:58:01;;;;;;;7.10;3.10;;;;;;;;;;698619;28;906;-60
2023/10/24 00:58:21;;;;;;;5.77;3.00;;;;;;;;;;697268;28;2522;-60
2023/10/24 00:58:42;;;;;;;5.95;2.83;;;;;;;;;;701160;28;880;-60
2023/10/24 00:59:02;;;;;;;7.00;3.07;;;;;;;;;;703414;28;883;-60
2023/10/24 00:59:23;;;;;;;5.57;2.97;;;;;;;;;;702227;28;2061;-60
2023/10/24 00:59:44;;;;;;;5.72;3.05;;;;;;;;;;700467;28;1437;-60
2023/10/24 01:00:06;;;;;;;5.28;3.00;;;;;;;;;;695715;28;862;-60
2023/10/24 01:00:27;;;;;;;5.45;3.10;;;;;;;;;;698022;28;1437;-61
2023/10/24 01:00:47;;;;;;;4.87;3.00;;;;;;;;;;699601;28;4352;-61
2023/10/24 01:01:10;;;;;;;6.45;3.00;;;;;;;;;;699792;28;990;-60
2023/10/24 01:01:30;;;;;;;6.05;2.95;;;;;;;;;;699702;28;2394;-59
2023/10/24 01:01:51;;;;;;;5.33;2.73;;;;;;;;;;703177;28;951;-60
2023/10/24 01:02:11;;;;;;;6.28;3.20;;;;;;;;;;701314;28;833;-60
2023/10/24 01:02:32;;;;;;;6.00;2.97;;;;;;;;;;701428;28;1682;-60
2023/10/24 01:02:53;;;;;;;4.90;2.88;;;;;;;;;;702168;28;958;-60
2023/10/24 01:03:14;;;;;;;5.22;2.75;;;;;;;;;;701650;27;2274;-60
2023/10/24 01:03:35;;;;;;;6.20;2.90;;;;;;;;;;703664;28;1499;-60
2023/10/24 01:03:56;;;;;;;5.87;3.00;;;;;;;;;;700130;28;5119;-60
2023/10/24 01:04:18;;;;;;;4.53;3.00;;;;;;;;;;698461;28;2206;-60
2023/10/24 01:04:39;;;;;;;6.30;2.95;;;;;;;;;;699489;28;995;-60
2023/10/24 01:04:59;;;;;;;5.63;3.00;;;;;;;;;;697113;28;1753;-60
2023/10/24 01:05:20;;;;;;;6.23;3.20;;;;;;;;;;695147;28;1352;-60
2023/10/24 01:05:40;;;;;;;5.67;2.87;;;;;;;;;;693314;28;1586;-60
2023/10/24 01:06:00;;;;;;;5.10;2.80;;;;;;;;;;695879;28;959;-60
2023/10/24 01:06:21;;;;;;;5.63;2.92;;;;;;;;;;696931;28;1587;-59
2023/10/24 01:06:41;;;;;;;6.70;3.03;;;;;;;;;;698060;28;4342;-60
2023/10/24 01:07:01;;;;;;;6.07;3.13;;;;;;;;;;700718;28;757;-60
2023/10/24 01:07:22;;;;;;;5.60;2.83;;;;;;;;;;700341;28;1719;-59
2023/10/24 01:07:44;;;;;;;6.22;3.28;;;;;;;;;;704193;28;1464;-60
2023/10/24 01:08:05;;;;;;;6.60;3.35;;;;;;;;;;700038;28;967;-60
2023/10/24 01:08:25;;;;;;;5.40;3.07;;;;;;;;;;693040;28;2563;-59
2023/10/24 01:08:45;;;;;;;5.32;2.90;;;;;;;;;;695801;28;892;-59
2023/10/24 01:09:05;;;;;;;5.20;2.83;;;;;;;;;;692894;28;990;-60
2023/10/24 01:09:26;;;;;;;4.87;2.90;;;;;;;;;;691245;28;1994;-60
2023/10/24 01:09:46;;;;;;;4.47;3.00;;;;;;;;;;690693;28;4832;-59
2023/10/24 01:10:07;;;;;;;6.23;3.20;;;;;;;;;;691303;28;850;-60
2023/10/24 01:10:27;;;;;;;5.70;3.00;;;;;;;;;;690851;28;2192;-60
2023/10/24 01:10:47;;;;;;;6.10;3.20;;;;;;;;;;693989;28;960;-60
2023/10/24 01:11:08;;;;;;;5.80;3.00;;;;;;;;;;691606;28;893;-60
2023/10/24 01:11:29;;;;;;;6.50;2.97;;;;;;;;;;693203;28;1710;-59
2023/10/24 01:11:49;;;;;;;5.63;2.90;;;;;;;;;;697041;28;924;-60
2023/10/24 01:12:10;;;;;;;5.82;2.70;;;;;;;;;;697489;28;1925;-59
2023/10/24 01:12:30;;;;;;;5.73;2.70;;;;;;;;;;697581;28;4877;-60
2023/10/24 01:12:50;;;;;;;6.07;2.93;;;;;;;;;;700035;28;4545;-59
2023/10/24 01:13:11;;;;;;;5.78;2.90;;;;;;;;;;704844;28;1240;-59
2023/10/24 01:13:32;;;;;;;5.00;2.90;;;;;;;;;;704031;28;2266;-60
2023/10/24 01:13:52;;;;;;;4.70;2.80;;;;;;;;;;701742;28;915;-59
2023/10/24 01:14:13;;;;;;;5.43;2.70;;;;;;;;;;702213;28;1013;-61
2023/10/24 01:14:33;;;;;;;7.03;2.90;;;;;;;;;;698919;28;1644;-59
2023/10/24 01:14:53;;;;;;;4.90;2.70;;;;;;;;;;701079;28;1309;-60
2023/10/24 01:15:13;;;;;;;5.15;2.92;;;;;;;;;;701154;28;1365;-59
2023/10/24 01:15:34;;;;;;;6.30;3.40;;;;;;;;;;699245;28;1709;-59
2023/10/24 01:15:54;;;;;;;6.17;3.00;;;;;;;;;;703575;28;4437;-59
2023/10/24 01:16:16;;;;;;;5.22;2.78;;;;;;;;;;702022;28;2321;-60
2023/10/24 01:16:45;;;;;;;4.35;2.70;;;;;;;;;;704754;28;1225;-59
2023/10/24 01:17:12;;;;;;;5.78;3.00;;;;;;;;;;705826;28;1273;-59
2023/10/24 01:17:32;;;;;;;5.82;3.35;;;;;;;;;;704932;28;1728;-59
2023/10/24 01:17:53;;;;;;;5.40;3.20;;;;;;;;;;702035;28;1309;-60
2023/10/24 01:18:13;;;;;;;5.53;3.00;;;;;;;;;;702793;28;1451;-59
2023/10/24 01:18:33;;;;;;;5.53;2.83;;;;;;;;;;701340;28;1563;-58
2023/10/24 01:18:54;;;;;;;5.97;3.07;;;;;;;;;;702100;28;4370;-59
2023/10/24 01:19:14;;;;;;;6.22;3.30;;;;;;;;;;701634;28;1559;-60
2023/10/24 01:19:34;;;;;;;6.47;2.83;;;;;;;;;;701646;28;3387;-61
2023/10/24 01:19:56;;;;;;;5.82;2.83;;;;;;;;;;703907;28;1392;-60
2023/10/24 01:20:16;;;;;;;6.73;2.80;;;;;;;;;;700318;28;1558;-59
2023/10/24 01:20:39;;;;;;;6.50;2.97;;;;;;;;;;701639;28;1874;-60
2023/10/24 01:21:01;;;;;;;5.40;2.70;;;;;;;;;;701781;28;1248;-59
2023/10/24 01:21:21;;;;;;;5.70;2.90;;;;;;;;;;698866;28;1888;-60
2023/10/24 01:21:45;;;;;;;4.77;2.70;;;;;;;;;;698311;28;4307;-60
2023/10/24 01:22:05;;;;;;;6.70;2.80;;;;;;;;;;699191;28;1278;-60
2023/10/24 01:22:26;;;;;;;6.93;2.83;;;;;;;;;;699320;28;1803;-60
2023/10/24 01:22:46;;;;;;;6.37;3.00;;;;;;;;;;702408;28;1226;-60
2023/10/24 01:23:07;;;;;;;5.55;3.15;;;;;;;;;;701253;28;1183;-60
2023/10/24 01:23:28;;;;;;;5.20;3.00;;;;;;;;;;702055;28;1732;-60
2023/10/24 01:23:49;;;;;;;5.32;3.00;;;;;;;;;;702967;28;867;-60
2023/10/24 01:24:10;;;;;;;5.43;2.83;;;;;;;;;;701160;28;1372;-61
2023/10/24 01:24:30;;;;;;;5.65;2.92;;;;;;;;;;697143;28;1509;-60
2023/10/24 01:24:51;;;;;;;5.47;3.03;;;;;;;;;;697191;28;4338;-60
2023/10/24 01:25:13;;;;;;;6.07;3.17;;;;;;;;;;696616;28;1369;-60
2023/10/24 01:25:34;;;;;;;6.05;2.80;;;;;;;;;;695596;28;2251;-61
2023/10/24 01:25:55;;;;;;;6.30;2.90;;;;;;;;;;698760;28;1305;-62
2023/10/24 01:26:17;;;;;;;5.25;2.80;;;;;;;;;;699099;28;2418;-61
2023/10/24 01:26:37;;;;;;;5.25;2.92;;;;;;;;;;699954;28;1505;-59
2023/10/24 01:26:58;;;;;;;5.20;2.90;;;;;;;;;;700089;28;1166;-61
2023/10/24 01:27:19;;;;;;;5.35;2.67;;;;;;;;;;698753;28;1308;-60
2023/10/24 01:27:40;;;;;;;6.03;2.70;;;;;;;;;;698723;28;4497;-59
2023/10/24 01:28:00;;;;;;;6.30;3.00;;;;;;;;;;698647;28;1144;-61
2023/10/24 01:28:21;;;;;;;6.45;3.03;;;;;;;;;;698607;28;1880;-60
2023/10/24 01:28:41;;;;;;;5.30;2.97;;;;;;;;;;700331;28;1206;-61
2023/10/24 01:29:01;;;;;;;5.87;2.97;;;;;;;;;;698086;28;1322;-59
2023/10/24 01:29:22;;;;;;;5.05;2.88;;;;;;;;;;694721;28;1809;-62
2023/10/24 01:29:42;;;;;;;4.30;2.83;;;;;;;;;;698495;28;1155;-59
2023/10/24 01:30:02;;;;;;;6.33;3.00;;;;;;;;;;700669;28;1194;-59
2023/10/24 01:30:23;;;;;;;6.45;2.90;;;;;;;;;;699451;28;1450;-59
2023/10/24 01:30:43;;;;;;;6.30;2.90;;;;;;;;;;702569;28;4363;-59
2023/10/24 01:31:03;;;;;;;6.50;3.00;;;;;;;;;;702358;28;1222;-61
2023/10/24 01:31:24;;;;;;;6.43;2.97;;;;;;;;;;700759;28;1524;-61
2023/10/24 01:31:44;;;;;;;5.90;3.10;;;;;;;;;;702603;28;1143;-59
2023/10/24 01:32:05;;;;;;;6.75;3.00;;;;;;;;;;699797;28;1917;-59
2023/10/24 01:32:29;;;;;;;6.43;2.93;;;;;;;;;;698426;28;2317;-60
2023/10/24 01:32:49;;;;;;;6.07;3.10;;;;;;;;;;701061;28;1234;-59
2023/10/24 01:33:10;;;;;;;7.03;2.97;;;;;;;;;;702100;28;1296;-59
2023/10/24 01:33:30;;;;;;;7.03;3.00;;;;;;;;;;696877;28;2608;-59
2023/10/24 01:33:50;;;;;;;5.05;3.03;;;;;;;;;;700325;28;4329;-58
2023/10/24 01:34:10;;;;;;;4.70;3.00;;;;;;;;;;701060;28;1422;-60
2023/10/24 01:34:31;;;;;;;5.15;2.88;;;;;;;;;;694845;28;1949;-59
2023/10/24 01:34:51;;;;;;;5.37;2.90;;;;;;;;;;697879;28;1374;-59
2023/10/24 01:35:12;;;;;;;5.83;2.80;;;;;;;;;;698476;28;1187;-60
2023/10/24 01:35:32;;;;;;;5.95;2.92;;;;;;;;;;694567;28;1381;-59
2023/10/24 01:35:52;;;;;;;7.47;3.20;;;;;;;;;;699527;28;1353;-58
2023/10/24 01:36:12;;;;;;;7.37;3.10;;;;;;;;;;702854;28;1207;-60
2023/10/24 01:36:33;;;;;;;4.88;2.80;;;;;;;;;;702232;28;1759;-61
2023/10/24 01:36:53;;;;;;;4.30;2.63;;;;;;;;;;703409;28;4499;-61
2023/10/24 01:37:13;;;;;;;6.47;2.90;;;;;;;;;;703581;28;1388;-60
2023/10/24 01:37:35;;;;;;;5.80;2.90;;;;;;;;;;700431;28;1404;-60
2023/10/24 01:37:56;;;;;;;5.80;2.80;;;;;;;;;;703744;28;1202;-60
2023/10/24 01:38:16;;;;;;;5.03;3.00;;;;;;;;;;699913;28;1907;-60
2023/10/24 01:38:36;;;;;;;5.07;2.90;;;;;;;;;;700845;28;1344;-59
2023/10/24 01:38:57;;;;;;;5.73;2.90;;;;;;;;;;697570;28;5716;-59
2023/10/24 01:39:17;;;;;;;5.93;2.70;;;;;;;;;;699768;28;2383;-59
2023/10/24 01:39:37;;;;;;;6.67;3.00;;;;;;;;;;697705;28;1261;-60
2023/10/24 01:39:57;;;;;;;6.07;3.10;;;;;;;;;;694987;28;4447;-60
2023/10/24 01:40:18;;;;;;;4.83;2.93;;;;;;;;;;696612;28;2257;-60
2023/10/24 01:40:38;;;;;;;5.53;2.93;;;;;;;;;;693616;28;1243;-60
2023/10/24 01:40:58;;;;;;;4.72;2.83;;;;;;;;;;697200;28;1354;-58
2023/10/24 01:41:19;;;;;;;6.33;3.00;;;;;;;;;;697316;28;1612;-59
2023/10/24 01:41:39;;;;;;;6.43;2.92;;;;;;;;;;698535;28;1311;-60
2023/10/24 01:41:59;;;;;;;6.33;2.93;;;;;;;;;;699229;28;1293;-60
2023/10/24 01:42:20;;;;;;;5.90;3.10;;;;;;;;;;697837;28;1975;-60
2023/10/24 01:42:40;;;;;;;5.70;2.90;;;;;;;;;;700097;28;4518;-60
2023/10/24 01:43:00;;;;;;;4.57;2.70;;;;;;;;;;701217;28;1266;-59
2023/10/24 01:43:21;;;;;;;5.23;2.70;;;;;;;;;;699790;28;2192;-59
2023/10/24 01:43:41;;;;;;;4.75;2.85;;;;;;;;;;702238;28;1214;-59
2023/10/24 01:44:01;;;;;;;5.40;2.93;;;;;;;;;;701368;28;1273;-58
2023/10/24 01:44:22;;;;;;;5.30;2.80;;;;;;;;;;702055;28;2033;-60
2023/10/24 01:44:42;;;;;;;4.40;2.80;;;;;;;;;;699368;28;1286;-59
2023/10/24 01:45:02;;;;;;;4.83;2.83;;;;;;;;;;698810;28;1273;-60
2023/10/24 01:45:23;;;;;;;4.78;2.80;;;;;;;;;;700470;28;1814;-59
2023/10/24 01:45:43;;;;;;;5.67;3.00;;;;;;;;;;697541;28;4478;-60
2023/10/24 01:46:03;;;;;;;6.23;3.20;;;;;;;;;;698107;28;1293;-59
2023/10/24 01:46:23;;;;;;;4.80;2.70;;;;;;;;;;696678;28;2341;-59
2023/10/24 01:46:44;;;;;;;5.53;2.73;;;;;;;;;;701517;28;1254;-60
2023/10/24 01:47:04;;;;;;;5.13;2.80;;;;;;;;;;699904;28;1372;-60
2023/10/24 01:47:24;;;;;;;5.75;2.65;;;;;;;;;;698829;28;1812;-59
2023/10/24 01:47:45;;;;;;;5.17;2.73;;;;;;;;;;701787;28;1257;-60
2023/10/24 01:48:05;;;;;;;6.00;2.83;;;;;;;;;;699062;28;1207;-60
2023/10/24 01:48:26;;;;;;;5.60;2.65;;;;;;;;;;697948;28;1697;-59
2023/10/24 01:48:46;;;;;;;5.77;3.00;;;;;;;;;;696517;28;4406;-59
2023/10/24 01:49:06;;;;;;;5.93;2.80;;;;;;;;;;695675;28;1310;-59
2023/10/24 01:49:28;;;;;;;6.05;2.97;;;;;;;;;;695240;28;2173;-60
2023/10/24 01:49:48;;;;;;;5.13;2.70;;;;;;;;;;698977;28;1378;-59
2023/10/24 01:50:09;;;;;;;6.43;2.70;;;;;;;;;;699152;28;1321;-58
2023/10/24 01:50:29;;;;;;;6.28;3.05;;;;;;;;;;700238;28;2073;-60
2023/10/24 01:50:49;;;;;;;6.53;3.00;;;;;;;;;;701232;28;1373;-60
2023/10/24 01:51:10;;;;;;;6.87;2.83;;;;;;;;;;701238;28;1273;-60
2023/10/24 01:51:30;;;;;;;4.93;2.70;;;;;;;;;;700718;28;2083;-59
2023/10/24 01:51:50;;;;;;;5.23;2.67;;;;;;;;;;703111;28;4540;-59
2023/10/24 01:52:11;;;;;;;5.23;2.80;;;;;;;;;;703604;28;1906;-59
2023/10/24 01:52:31;;;;;;;4.97;2.73;;;;;;;;;;699804;28;1533;-60
2023/10/24 01:52:51;;;;;;;4.97;3.03;;;;;;;;;;700416;28;1412;-60
2023/10/24 01:53:12;;;;;;;5.10;3.20;;;;;;;;;;702684;28;1218;-60
2023/10/24 01:53:32;;;;;;;6.20;2.90;;;;;;;;;;700337;28;1795;-60
2023/10/24 01:53:52;;;;;;;5.50;2.70;;;;;;;;;;700668;28;1258;-60
2023/10/24 01:54:12;;;;;;;5.00;2.90;;;;;;;;;;700984;28;1385;-59
2023/10/24 01:54:33;;;;;;;4.97;2.67;;;;;;;;;;699717;28;1789;-60
2023/10/24 01:54:53;;;;;;;4.23;2.70;;;;;;;;;;703391;28;4339;-60
2023/10/24 01:55:13;;;;;;;6.30;3.00;;;;;;;;;;704749;28;1361;-59
2023/10/24 01:55:34;;;;;;;6.77;3.00;;;;;;;;;;701712;28;1912;-59
2023/10/24 01:55:54;;;;;;;5.67;2.90;;;;;;;;;;701725;28;1397;-60
2023/10/24 01:56:14;;;;;;;5.95;2.63;;;;;;;;;;699891;28;1348;-60
2023/10/24 01:56:35;;;;;;;4.90;2.43;;;;;;;;;;699664;28;2249;-60
2023/10/24 01:56:55;;;;;;;4.60;2.87;;;;;;;;;;698688;28;1272;-60
2023/10/24 01:57:16;;;;;;;4.85;2.58;;;;;;;;;;698445;28;1381;-60
2023/10/24 01:57:36;;;;;;;5.15;2.85;;;;;;;;;;697157;28;1453;-60
2023/10/24 01:57:57;;;;;;;5.87;2.80;;;;;;;;;;694755;28;4470;-59
2023/10/24 01:58:17;;;;;;;6.00;2.90;;;;;;;;;;695032;28;1302;-59
2023/10/24 01:58:37;;;;;;;5.87;2.73;;;;;;;;;;692815;28;1670;-60
2023/10/24 01:58:57;;;;;;;4.80;2.70;;;;;;;;;;696240;28;1343;-59
2023/10/24 01:59:18;;;;;;;4.27;2.60;;;;;;;;;;693782;28;1754;-61
2023/10/24 01:59:38;;;;;;;5.88;2.80;;;;;;;;;;695555;28;1258;-60
2023/10/24 01:59:58;;;;;;;4.63;2.73;;;;;;;;;;695942;28;1408;-60
2023/10/24 02:00:19;;;;;;;4.85;2.58;;;;;;;;;;690659;28;1850;-60
2023/10/24 02:00:39;;;;;;;5.00;2.60;;;;;;;;;;690961;28;4602;-60
2023/10/24 02:01:00;;;;;;;5.30;2.63;;;;;;;;;;693010;28;1410;-60
2023/10/24 02:01:20;;;;;;;5.30;2.50;;;;;;;;;;694741;28;1851;-60
2023/10/24 02:01:41;;;;;;;4.63;2.60;;;;;;;;;;698676;28;1215;-60
2023/10/24 02:02:01;;;;;;;5.00;2.63;;;;;;;;;;701378;28;1214;-60
2023/10/24 02:02:21;;;;;;;5.50;2.60;;;;;;;;;;703118;28;2414;-60
2023/10/24 02:02:42;;;;;;;6.05;2.80;;;;;;;;;;700754;28;1273;-60
2023/10/24 02:03:02;;;;;;;5.90;2.60;;;;;;;;;;704418;28;1272;-60
2023/10/24 02:03:22;;;;;;;6.93;2.80;;;;;;;;;;703367;28;1309;-60
2023/10/24 02:03:42;;;;;;;5.45;2.70;;;;;;;;;;702696;28;4363;-60
2023/10/24 02:04:03;;;;;;;5.10;2.67;;;;;;;;;;703461;28;1294;-60
2023/10/24 02:04:23;;;;;;;5.30;2.60;;;;;;;;;;700132;28;1898;-59
2023/10/24 02:04:43;;;;;;;6.60;2.72;;;;;;;;;;703425;28;1312;-59
2023/10/24 02:05:04;;;;;;;6.77;3.07;;;;;;;;;;703765;28;1223;-60
2023/10/24 02:05:25;;;;;;;4.93;2.63;;;;;;;;;;700090;28;1702;-60
2023/10/24 02:05:46;;;;;;;5.00;2.50;;;;;;;;;;701808;28;1234;-59
2023/10/24 02:06:06;;;;;;;5.07;2.50;;;;;;;;;;698739;28;1520;-60
2023/10/24 02:06:26;;;;;;;5.68;2.50;;;;;;;;;;699527;28;2264;-60
2023/10/24 02:06:46;;;;;;;5.47;2.80;;;;;;;;;;700935;28;4355;-60
2023/10/24 02:07:07;;;;;;;5.73;3.07;;;;;;;;;;701389;28;833;-59
2023/10/24 02:07:27;;;;;;;6.53;3.10;;;;;;;;;;699332;28;1971;-60
2023/10/24 02:07:47;;;;;;;4.97;2.80;;;;;;;;;;698998;28;1163;-60